Main page
METAR-TAF:

METAR-TAF

Airports :

Mae Sot Airport

Mae Sot, Thailand

latitude: 16-40N, longitude: 098-33E, elevation: 196 m

Current weather observation

The report was made 9 hours and 11 minutes ago, at 11:00 UTC
Wind 4 kt from the North/Northeast
Temperature 29°C
Humidity 66%
Pressure 1009 hPa
Visibility 10 km or more
Few clouds at a height of 3500 ft

METAR: VTPM 011100Z 03004KT 9999 FEW035 29/22 Q1009 NOSIG

Time: 03:11 (20:11 UTC)

Forecast

The report was made 3 hours and 11 minutes ago, at 17:00 UTC
Forecast valid from 01 at 18 UTC to 02 at 18 UTC
Wind 5 kt from the North/Northeast
Visibility 10 km or more
Scattered clouds at a height of 3500 ft
Temporary
from 02 at 08 UTC to 02 at 14 UTC
Few clouds at a height of 2000 ft, Cumulonimbus.
Broken clouds at a height of 3000 ft
thunderstorm, light rain

TAF: VTPM 011700Z 0118/0218 03005KT 9999 SCT035 TEMPO 0208/0214 -TSRA FEW020CB BKN030

Weather observations and forecasts of more than 4000 airports (METAR and TAF reports).

The available stations are represented by yellow and red dots on the map.

Hover mouse over dot to see the name of the station.

Then click to see weather observations and forecasts.

To change the map : click on the green buttons with a black cross to zoom in, on the green button with a dash to zoom out, or on the green arrows for adjacent maps.


METAR-TAF: